sensor_id;sensor_type;location;lat;lon;timestamp;temperature;humidity
336;DHT22;156;48.738;9.228;2023-11-19T00:02:32;7.80;99.90
336;DHT22;156;48.738;9.228;2023-11-19T00:05:01;7.50;99.90
336;DHT22;156;48.738;9.228;2023-11-19T00:07:28;7.60;99.90
336;DHT22;156;48.738;9.228;2023-11-19T00:09:55;7.60;99.90
336;DHT22;156;48.738;9.228;2023-11-19T00:12:21;7.60;99.90
336;DHT22;156;48.738;9.228;2023-11-19T00:14:51;7.60;99.90
336;DHT22;156;48.738;9.228;2023-11-19T00:17:18;7.60;99.90
336;DHT22;156;48.738;9.228;2023-11-19T00:19:45;7.60;99.90
336;DHT22;156;48.738;9.228;2023-11-19T00:22:12;7.60;99.90
336;DHT22;156;48.738;9.228;2023-11-19T00:24:39;7.70;99.90
336;DHT22;156;48.738;9.228;2023-11-19T00:27:06;7.70;99.90
336;DHT22;156;48.738;9.228;2023-11-19T00:29:33;7.70;99.90
336;DHT22;156;48.738;9.228;2023-11-19T00:32:01;7.70;99.90
336;DHT22;156;48.738;9.228;2023-11-19T00:34:28;7.80;99.90
336;DHT22;156;48.738;9.228;2023-11-19T00:36:55;7.80;99.90
336;DHT22;156;48.738;9.228;2023-11-19T00:39:22;7.80;99.90
336;DHT22;156;48.738;9.228;2023-11-19T00:41:49;7.80;99.90
336;DHT22;156;48.738;9.228;2023-11-19T00:44:16;7.80;99.90
336;DHT22;156;48.738;9.228;2023-11-19T00:46:43;7.80;99.90
336;DHT22;156;48.738;9.228;2023-11-19T00:49:12;7.90;99.90
336;DHT22;156;48.738;9.228;2023-11-19T00:51:38;7.90;99.90
336;DHT22;156;48.738;9.228;2023-11-19T00:54:05;8.00;99.90
336;DHT22;156;48.738;9.228;2023-11-19T00:56:32;8.00;99.90
336;DHT22;156;48.738;9.228;2023-11-19T00:58:59;8.00;99.90
336;DHT22;156;48.738;9.228;2023-11-19T01:01:26;8.10;99.90
336;DHT22;156;48.738;9.228;2023-11-19T01:03:53;8.10;99.90
336;DHT22;156;48.738;9.228;2023-11-19T01:06:30;8.10;99.90
336;DHT22;156;48.738;9.228;2023-11-19T01:09:00;8.20;99.90
336;DHT22;156;48.738;9.228;2023-11-19T01:11:28;8.30;99.90
336;DHT22;156;48.738;9.228;2023-11-19T01:13:55;8.60;99.90
336;DHT22;156;48.738;9.228;2023-11-19T01:16:22;8.30;99.90
336;DHT22;156;48.738;9.228;2023-11-19T01:18:49;8.20;99.90
336;DHT22;156;48.738;9.228;2023-11-19T01:21:16;8.30;99.90
336;DHT22;156;48.738;9.228;2023-11-19T01:23:45;8.30;99.90
336;DHT22;156;48.738;9.228;2023-11-19T01:26:12;8.40;99.90
336;DHT22;156;48.738;9.228;2023-11-19T01:28:40;8.40;99.90
336;DHT22;156;48.738;9.228;2023-11-19T01:31:10;8.40;99.90
336;DHT22;156;48.738;9.228;2023-11-19T01:33:38;8.40;99.90
336;DHT22;156;48.738;9.228;2023-11-19T01:36:07;8.40;99.90
336;DHT22;156;48.738;9.228;2023-11-19T01:38:34;8.50;99.90
336;DHT22;156;48.738;9.228;2023-11-19T01:41:03;8.50;99.90
336;DHT22;156;48.738;9.228;2023-11-19T01:43:34;8.50;99.90
336;DHT22;156;48.738;9.228;2023-11-19T01:46:01;8.50;99.90
336;DHT22;156;48.738;9.228;2023-11-19T01:48:29;8.60;99.90
336;DHT22;156;48.738;9.228;2023-11-19T01:50:57;8.60;99.90
336;DHT22;156;48.738;9.228;2023-11-19T01:53:25;8.70;99.90
336;DHT22;156;48.738;9.228;2023-11-19T01:55:52;8.70;99.90
336;DHT22;156;48.738;9.228;2023-11-19T01:58:20;8.70;99.90
336;DHT22;156;48.738;9.228;2023-11-19T02:00:48;8.70;99.90
336;DHT22;156;48.738;9.228;2023-11-19T02:03:15;8.80;99.90
336;DHT22;156;48.738;9.228;2023-11-19T02:05:42;8.80;99.90
336;DHT22;156;48.738;9.228;2023-11-19T02:08:09;8.90;99.90
336;DHT22;156;48.738;9.228;2023-11-19T02:10:36;8.90;99.90
336;DHT22;156;48.738;9.228;2023-11-19T02:13:04;8.90;99.90
336;DHT22;156;48.738;9.228;2023-11-19T02:15:33;8.90;99.90
336;DHT22;156;48.738;9.228;2023-11-19T02:18:18;9.00;99.90
336;DHT22;156;48.738;9.228;2023-11-19T02:20:45;9.10;99.90
336;DHT22;156;48.738;9.228;2023-11-19T02:23:13;9.10;99.90
336;DHT22;156;48.738;9.228;2023-11-19T02:25:40;9.10;99.90
336;DHT22;156;48.738;9.228;2023-11-19T02:28:09;9.20;99.90
336;DHT22;156;48.738;9.228;2023-11-19T02:30:38;9.20;99.90
336;DHT22;156;48.738;9.228;2023-11-19T02:33:05;9.30;99.90
336;DHT22;156;48.738;9.228;2023-11-19T02:35:32;9.30;99.90
336;DHT22;156;48.738;9.228;2023-11-19T02:37:59;9.40;99.90
336;DHT22;156;48.738;9.228;2023-11-19T02:40:27;9.40;99.90
336;DHT22;156;48.738;9.228;2023-11-19T02:42:54;9.50;99.90
336;DHT22;156;48.738;9.228;2023-11-19T02:45:24;9.50;99.90
336;DHT22;156;48.738;9.228;2023-11-19T02:47:51;9.60;99.90
336;DHT22;156;48.738;9.228;2023-11-19T02:50:19;9.60;99.90
336;DHT22;156;48.738;9.228;2023-11-19T02:52:51;9.60;99.90
336;DHT22;156;48.738;9.228;2023-11-19T02:55:19;9.70;99.90
336;DHT22;156;48.738;9.228;2023-11-19T02:57:46;9.70;99.90
336;DHT22;156;48.738;9.228;2023-11-19T03:00:15;9.70;99.90
336;DHT22;156;48.738;9.228;2023-11-19T03:02:44;9.80;99.90
336;DHT22;156;48.738;9.228;2023-11-19T03:05:12;9.80;99.90
336;DHT22;156;48.738;9.228;2023-11-19T03:07:40;9.80;99.90
336;DHT22;156;48.738;9.228;2023-11-19T03:10:09;9.90;99.90
336;DHT22;156;48.738;9.228;2023-11-19T03:12:39;9.90;99.90
336;DHT22;156;48.738;9.228;2023-11-19T03:15:07;9.90;99.90
336;DHT22;156;48.738;9.228;2023-11-19T03:17:36;10.00;99.90
336;DHT22;156;48.738;9.228;2023-11-19T03:20:07;10.00;99.90
336;DHT22;156;48.738;9.228;2023-11-19T03:22:36;10.00;99.90
336;DHT22;156;48.738;9.228;2023-11-19T03:25:04;10.00;99.90
336;DHT22;156;48.738;9.228;2023-11-19T03:27:34;10.00;99.90
336;DHT22;156;48.738;9.228;2023-11-19T03:30:01;10.10;99.90
336;DHT22;156;48.738;9.228;2023-11-19T03:32:30;10.10;99.90
336;DHT22;156;48.738;9.228;2023-11-19T03:34:57;10.10;99.90
336;DHT22;156;48.738;9.228;2023-11-19T03:37:26;10.20;99.90
336;DHT22;156;48.738;9.228;2023-11-19T03:39:53;10.20;99.90
336;DHT22;156;48.738;9.228;2023-11-19T03:42:25;10.20;99.90
336;DHT22;156;48.738;9.228;2023-11-19T03:44:52;10.20;99.90
336;DHT22;156;48.738;9.228;2023-11-19T03:47:19;10.20;99.90
336;DHT22;156;48.738;9.228;2023-11-19T03:49:48;10.10;99.90
336;DHT22;156;48.738;9.228;2023-11-19T03:52:15;10.10;99.90
336;DHT22;156;48.738;9.228;2023-11-19T03:54:44;10.10;99.90
336;DHT22;156;48.738;9.228;2023-11-19T03:57:11;10.10;99.90
336;DHT22;156;48.738;9.228;2023-11-19T03:59:38;10.00;99.90
336;DHT22;156;48.738;9.228;2023-11-19T04:02:06;10.00;99.90
336;DHT22;156;48.738;9.228;2023-11-19T04:04:33;10.00;99.90
336;DHT22;156;48.738;9.228;2023-11-19T04:07:00;10.00;99.90
336;DHT22;156;48.738;9.228;2023-11-19T04:09:28;10.00;99.90
336;DHT22;156;48.738;9.228;2023-11-19T04:11:57;10.00;99.90
336;DHT22;156;48.738;9.228;2023-11-19T04:14:24;10.00;99.90
336;DHT22;156;48.738;9.228;2023-11-19T04:16:51;10.00;99.90
336;DHT22;156;48.738;9.228;2023-11-19T04:19:18;10.00;99.90
336;DHT22;156;48.738;9.228;2023-11-19T04:21:45;10.00;99.90
336;DHT22;156;48.738;9.228;2023-11-19T04:24:12;10.10;99.90
336;DHT22;156;48.738;9.228;2023-11-19T04:26:43;10.00;99.90
336;DHT22;156;48.738;9.228;2023-11-19T04:29:12;10.10;99.90
336;DHT22;156;48.738;9.228;2023-11-19T04:31:40;10.10;99.90
336;DHT22;156;48.738;9.228;2023-11-19T04:34:07;10.10;99.90
336;DHT22;156;48.738;9.228;2023-11-19T04:36:34;10.10;99.90
336;DHT22;156;48.738;9.228;2023-11-19T04:39:03;10.10;99.90
336;DHT22;156;48.738;9.228;2023-11-19T04:41:34;10.20;99.90
336;DHT22;156;48.738;9.228;2023-11-19T04:44:01;10.10;99.90
336;DHT22;156;48.738;9.228;2023-11-19T04:46:29;10.10;99.90
336;DHT22;156;48.738;9.228;2023-11-19T04:48:56;10.20;99.90
336;DHT22;156;48.738;9.228;2023-11-19T04:51:23;10.10;99.90
336;DHT22;156;48.738;9.228;2023-11-19T04:53:50;10.20;99.90
336;DHT22;156;48.738;9.228;2023-11-19T04:56:16;10.20;99.90
336;DHT22;156;48.738;9.228;2023-11-19T04:58:45;10.20;99.90
336;DHT22;156;48.738;9.228;2023-11-19T05:01:13;10.20;99.90
336;DHT22;156;48.738;9.228;2023-11-19T05:03:43;10.20;99.90
336;DHT22;156;48.738;9.228;2023-11-19T05:06:10;10.20;99.90
336;DHT22;156;48.738;9.228;2023-11-19T05:08:37;10.20;99.90
336;DHT22;156;48.738;9.228;2023-11-19T05:11:05;10.20;99.90
336;DHT22;156;48.738;9.228;2023-11-19T05:13:32;10.20;99.90
336;DHT22;156;48.738;9.228;2023-11-19T05:15:59;10.30;99.90
336;DHT22;156;48.738;9.228;2023-11-19T05:18:26;10.30;99.90
336;DHT22;156;48.738;9.228;2023-11-19T05:20:54;10.30;99.90
336;DHT22;156;48.738;9.228;2023-11-19T05:23:21;10.40;99.90
336;DHT22;156;48.738;9.228;2023-11-19T05:25:48;10.40;99.90
336;DHT22;156;48.738;9.228;2023-11-19T05:28:15;10.40;99.90
336;DHT22;156;48.738;9.228;2023-11-19T05:30:42;10.40;99.90
336;DHT22;156;48.738;9.228;2023-11-19T05:33:09;10.40;99.90
336;DHT22;156;48.738;9.228;2023-11-19T05:35:36;10.40;99.90
336;DHT22;156;48.738;9.228;2023-11-19T05:38:04;10.40;99.90
336;DHT22;156;48.738;9.228;2023-11-19T05:40:31;10.50;99.90
336;DHT22;156;48.738;9.228;2023-11-19T05:42:58;10.40;99.90
336;DHT22;156;48.738;9.228;2023-11-19T05:45:25;10.40;99.90
336;DHT22;156;48.738;9.228;2023-11-19T05:47:52;10.40;99.90
336;DHT22;156;48.738;9.228;2023-11-19T05:50:19;10.50;99.90
336;DHT22;156;48.738;9.228;2023-11-19T05:52:46;10.50;99.90
336;DHT22;156;48.738;9.228;2023-11-19T05:55:15;10.50;99.90
336;DHT22;156;48.738;9.228;2023-11-19T05:57:41;10.50;99.90
336;DHT22;156;48.738;9.228;2023-11-19T06:00:09;10.50;99.90
336;DHT22;156;48.738;9.228;2023-11-19T06:02:38;10.60;99.90
336;DHT22;156;48.738;9.228;2023-11-19T06:05:06;10.50;99.90
336;DHT22;156;48.738;9.228;2023-11-19T06:07:33;10.60;99.90
336;DHT22;156;48.738;9.228;2023-11-19T06:10:00;10.50;99.90
336;DHT22;156;48.738;9.228;2023-11-19T06:12:29;10.50;99.90
336;DHT22;156;48.738;9.228;2023-11-19T06:14:57;10.50;99.90
336;DHT22;156;48.738;9.228;2023-11-19T06:17:24;10.50;99.90
336;DHT22;156;48.738;9.228;2023-11-19T06:19:51;10.50;99.90
336;DHT22;156;48.738;9.228;2023-11-19T06:22:18;10.50;99.90
336;DHT22;156;48.738;9.228;2023-11-19T06:24:45;10.50;99.90
336;DHT22;156;48.738;9.228;2023-11-19T06:27:11;10.50;99.90
336;DHT22;156;48.738;9.228;2023-11-19T06:29:40;10.60;99.90
336;DHT22;156;48.738;9.228;2023-11-19T06:32:07;10.50;99.90
336;DHT22;156;48.738;9.228;2023-11-19T06:34:34;10.60;99.90
336;DHT22;156;48.738;9.228;2023-11-19T06:37:01;10.60;99.90
336;DHT22;156;48.738;9.228;2023-11-19T06:39:29;10.60;99.90
336;DHT22;156;48.738;9.228;2023-11-19T06:41:56;10.60;99.90
336;DHT22;156;48.738;9.228;2023-11-19T06:44:23;10.60;99.90
336;DHT22;156;48.738;9.228;2023-11-19T06:46:52;10.60;99.90
336;DHT22;156;48.738;9.228;2023-11-19T06:49:19;10.60;99.90
336;DHT22;156;48.738;9.228;2023-11-19T06:51:46;10.60;99.90
336;DHT22;156;48.738;9.228;2023-11-19T06:54:15;10.70;99.90
336;DHT22;156;48.738;9.228;2023-11-19T06:56:42;10.70;99.90
336;DHT22;156;48.738;9.228;2023-11-19T06:59:09;10.70;99.90
336;DHT22;156;48.738;9.228;2023-11-19T07:01:36;10.70;99.90
336;DHT22;156;48.738;9.228;2023-11-19T07:04:05;10.70;99.90
336;DHT22;156;48.738;9.228;2023-11-19T07:06:36;10.60;99.90
336;DHT22;156;48.738;9.228;2023-11-19T07:09:04;10.60;99.90
336;DHT22;156;48.738;9.228;2023-11-19T07:11:35;10.70;99.90
336;DHT22;156;48.738;9.228;2023-11-19T07:14:04;10.70;99.90
336;DHT22;156;48.738;9.228;2023-11-19T07:16:34;10.70;99.90
336;DHT22;156;48.738;9.228;2023-11-19T07:19:08;10.70;99.90
336;DHT22;156;48.738;9.228;2023-11-19T07:21:35;10.70;99.90
336;DHT22;156;48.738;9.228;2023-11-19T07:24:05;10.70;99.90
336;DHT22;156;48.738;9.228;2023-11-19T07:26:32;10.70;99.90
336;DHT22;156;48.738;9.228;2023-11-19T07:28:59;10.80;99.90
336;DHT22;156;48.738;9.228;2023-11-19T07:31:27;10.80;99.90
336;DHT22;156;48.738;9.228;2023-11-19T07:33:54;10.80;99.90
336;DHT22;156;48.738;9.228;2023-11-19T07:36:22;10.70;99.90
336;DHT22;156;48.738;9.228;2023-11-19T07:38:52;10.70;99.90
336;DHT22;156;48.738;9.228;2023-11-19T07:41:22;10.70;99.90
336;DHT22;156;48.738;9.228;2023-11-19T07:43:51;10.80;99.90
336;DHT22;156;48.738;9.228;2023-11-19T07:46:19;10.80;99.90
336;DHT22;156;48.738;9.228;2023-11-19T07:48:46;10.80;99.90
336;DHT22;156;48.738;9.228;2023-11-19T07:51:14;10.80;99.90
336;DHT22;156;48.738;9.228;2023-11-19T07:53:42;10.80;99.90
336;DHT22;156;48.738;9.228;2023-11-19T07:56:10;10.80;99.90
336;DHT22;156;48.738;9.228;2023-11-19T07:58:37;10.80;99.90
336;DHT22;156;48.738;9.228;2023-11-19T08:01:05;10.90;99.90
336;DHT22;156;48.738;9.228;2023-11-19T08:03:32;10.90;99.90
336;DHT22;156;48.738;9.228;2023-11-19T08:06:02;10.90;99.90
336;DHT22;156;48.738;9.228;2023-11-19T08:08:30;10.90;99.90
336;DHT22;156;48.738;9.228;2023-11-19T08:11:00;10.90;99.90
336;DHT22;156;48.738;9.228;2023-11-19T08:13:27;10.90;99.90
336;DHT22;156;48.738;9.228;2023-11-19T08:15:59;11.00;99.90
336;DHT22;156;48.738;9.228;2023-11-19T08:18:26;11.00;99.90
336;DHT22;156;48.738;9.228;2023-11-19T08:20:53;11.00;99.90
336;DHT22;156;48.738;9.228;2023-11-19T08:23:24;11.00;99.90
336;DHT22;156;48.738;9.228;2023-11-19T08:25:54;11.10;99.90
336;DHT22;156;48.738;9.228;2023-11-19T08:28:23;11.10;99.90
336;DHT22;156;48.738;9.228;2023-11-19T08:30:50;11.20;99.90
336;DHT22;156;48.738;9.228;2023-11-19T08:33:17;11.20;99.90
336;DHT22;156;48.738;9.228;2023-11-19T08:35:44;11.30;99.90
336;DHT22;156;48.738;9.228;2023-11-19T08:38:11;11.30;99.90
336;DHT22;156;48.738;9.228;2023-11-19T08:40:37;11.40;99.90
336;DHT22;156;48.738;9.228;2023-11-19T08:43:05;11.50;99.90
336;DHT22;156;48.738;9.228;2023-11-19T08:45:33;11.60;99.90
336;DHT22;156;48.738;9.228;2023-11-19T08:48:00;11.70;99.90
336;DHT22;156;48.738;9.228;2023-11-19T08:50:27;11.70;99.90
336;DHT22;156;48.738;9.228;2023-11-19T08:52:54;11.70;99.90
336;DHT22;156;48.738;9.228;2023-11-19T08:55:21;11.80;99.90
336;DHT22;156;48.738;9.228;2023-11-19T08:57:48;11.90;99.90
336;DHT22;156;48.738;9.228;2023-11-19T09:00:16;11.80;99.90
336;DHT22;156;48.738;9.228;2023-11-19T09:02:44;11.90;99.90
336;DHT22;156;48.738;9.228;2023-11-19T09:05:11;11.90;99.90
336;DHT22;156;48.738;9.228;2023-11-19T09:07:38;11.90;99.90
336;DHT22;156;48.738;9.228;2023-11-19T09:10:06;11.90;99.90
336;DHT22;156;48.738;9.228;2023-11-19T09:12:37;11.90;99.90
336;DHT22;156;48.738;9.228;2023-11-19T09:15:04;12.10;99.90
336;DHT22;156;48.738;9.228;2023-11-19T09:17:34;12.20;99.90
336;DHT22;156;48.738;9.228;2023-11-19T09:20:03;12.30;99.90
336;DHT22;156;48.738;9.228;2023-11-19T09:22:33;12.40;99.90
336;DHT22;156;48.738;9.228;2023-11-19T09:25:00;12.40;99.90
336;DHT22;156;48.738;9.228;2023-11-19T09:27:30;11.10;99.90
336;DHT22;156;48.738;9.228;2023-11-19T09:29:56;12.40;99.90
336;DHT22;156;48.738;9.228;2023-11-19T09:32:24;12.50;99.90
336;DHT22;156;48.738;9.228;2023-11-19T09:34:51;12.50;99.90
336;DHT22;156;48.738;9.228;2023-11-19T09:37:28;12.60;99.90
336;DHT22;156;48.738;9.228;2023-11-19T09:39:58;12.80;86.50
336;DHT22;156;48.738;9.228;2023-11-19T09:42:25;12.90;89.40
336;DHT22;156;48.738;9.228;2023-11-19T09:44:55;12.80;85.60
336;DHT22;156;48.738;9.228;2023-11-19T09:47:23;12.90;76.30
336;DHT22;156;48.738;9.228;2023-11-19T09:49:53;13.00;40.00
336;DHT22;156;48.738;9.228;2023-11-19T09:52:22;13.00;60.60
336;DHT22;156;48.738;9.228;2023-11-19T09:54:50;13.00;64.40
336;DHT22;156;48.738;9.228;2023-11-19T09:57:19;13.00;53.40
336;DHT22;156;48.738;9.228;2023-11-19T09:59:46;12.90;45.60
336;DHT22;156;48.738;9.228;2023-11-19T10:02:20;13.00;43.00
336;DHT22;156;48.738;9.228;2023-11-19T10:04:47;13.00;21.60
336;DHT22;156;48.738;9.228;2023-11-19T10:07:15;13.10;32.80
336;DHT22;156;48.738;9.228;2023-11-19T10:09:44;13.30;10.60
336;DHT22;156;48.738;9.228;2023-11-19T10:12:12;13.30;11.90
336;DHT22;156;48.738;9.228;2023-11-19T10:14:43;13.30;1.00
336;DHT22;156;48.738;9.228;2023-11-19T10:17:10;13.40;1.00
336;DHT22;156;48.738;9.228;2023-11-19T10:19:40;13.40;1.00
336;DHT22;156;48.738;9.228;2023-11-19T10:22:08;13.40;1.00
336;DHT22;156;48.738;9.228;2023-11-19T10:24:35;13.60;1.00
336;DHT22;156;48.738;9.228;2023-11-19T10:27:06;13.60;1.00
336;DHT22;156;48.738;9.228;2023-11-19T10:29:36;13.80;1.00
336;DHT22;156;48.738;9.228;2023-11-19T10:32:03;13.80;1.00
336;DHT22;156;48.738;9.228;2023-11-19T10:34:30;13.80;1.00
336;DHT22;156;48.738;9.228;2023-11-19T10:36:59;13.70;1.00
336;DHT22;156;48.738;9.228;2023-11-19T10:42:20;13.80;1.00
336;DHT22;156;48.738;9.228;2023-11-19T10:44:47;13.90;1.00
336;DHT22;156;48.738;9.228;2023-11-19T10:47:14;14.10;1.00
336;DHT22;156;48.738;9.228;2023-11-19T10:49:44;14.20;1.00
336;DHT22;156;48.738;9.228;2023-11-19T10:52:12;14.30;1.00
336;DHT22;156;48.738;9.228;2023-11-19T10:54:44;14.20;1.00
336;DHT22;156;48.738;9.228;2023-11-19T10:57:20;14.40;1.00
336;DHT22;156;48.738;9.228;2023-11-19T11:00:02;14.60;1.00
336;DHT22;156;48.738;9.228;2023-11-19T11:02:42;14.70;1.00
336;DHT22;156;48.738;9.228;2023-11-19T11:08:04;14.60;1.00
336;DHT22;156;48.738;9.228;2023-11-19T11:10:57;14.70;99.90
336;DHT22;156;48.738;9.228;2023-11-19T11:13:35;14.80;99.90
336;DHT22;156;48.738;9.228;2023-11-19T11:16:06;15.10;99.90
336;DHT22;156;48.738;9.228;2023-11-19T11:18:46;14.80;99.90
336;DHT22;156;48.738;9.228;2023-11-19T11:21:24;14.80;99.90
336;DHT22;156;48.738;9.228;2023-11-19T11:24:21;14.70;99.90
336;DHT22;156;48.738;9.228;2023-11-19T11:27:14;14.60;78.30
336;DHT22;156;48.738;9.228;2023-11-19T11:30:01;14.50;1.00
336;DHT22;156;48.738;9.228;2023-11-19T11:32:40;14.50;1.00
336;DHT22;156;48.738;9.228;2023-11-19T11:35:33;15.20;1.00
336;DHT22;156;48.738;9.228;2023-11-19T11:38:06;14.90;1.00
336;DHT22;156;48.738;9.228;2023-11-19T11:40:35;14.80;1.00
336;DHT22;156;48.738;9.228;2023-11-19T11:43:05;14.70;1.00
336;DHT22;156;48.738;9.228;2023-11-19T11:45:52;14.90;1.00
336;DHT22;156;48.738;9.228;2023-11-19T11:48:31;14.80;99.90
336;DHT22;156;48.738;9.228;2023-11-19T11:51:01;15.40;99.90
336;DHT22;156;48.738;9.228;2023-11-19T11:53:30;15.30;1.00
336;DHT22;156;48.738;9.228;2023-11-19T11:55:59;15.40;1.00
336;DHT22;156;48.738;9.228;2023-11-19T11:58:35;15.30;1.00
336;DHT22;156;48.738;9.228;2023-11-19T12:01:18;15.50;1.00
336;DHT22;156;48.738;9.228;2023-11-19T12:03:50;15.50;99.90
336;DHT22;156;48.738;9.228;2023-11-19T12:06:26;15.20;99.90
336;DHT22;156;48.738;9.228;2023-11-19T12:09:01;15.10;99.90
336;DHT22;156;48.738;9.228;2023-11-19T12:11:42;15.00;99.90
336;DHT22;156;48.738;9.228;2023-11-19T12:14:16;15.00;99.90
336;DHT22;156;48.738;9.228;2023-11-19T12:16:47;15.20;99.90
336;DHT22;156;48.738;9.228;2023-11-19T12:19:18;15.50;99.90
336;DHT22;156;48.738;9.228;2023-11-19T12:22:11;15.60;94.10
336;DHT22;156;48.738;9.228;2023-11-19T12:24:47;15.60;99.90
336;DHT22;156;48.738;9.228;2023-11-19T12:27:39;15.20;99.90
336;DHT22;156;48.738;9.228;2023-11-19T12:30:08;15.40;99.90
336;DHT22;156;48.738;9.228;2023-11-19T12:32:42;15.00;99.90
336;DHT22;156;48.738;9.228;2023-11-19T12:35:11;15.10;99.90
336;DHT22;156;48.738;9.228;2023-11-19T12:37:40;15.20;99.90
336;DHT22;156;48.738;9.228;2023-11-19T12:40:14;15.20;1.00
336;DHT22;156;48.738;9.228;2023-11-19T12:42:49;15.40;1.00
336;DHT22;156;48.738;9.228;2023-11-19T12:45:16;15.50;1.00
336;DHT22;156;48.738;9.228;2023-11-19T12:47:48;15.20;1.00
336;DHT22;156;48.738;9.228;2023-11-19T12:50:21;15.20;1.00
336;DHT22;156;48.738;9.228;2023-11-19T12:52:58;15.40;1.00
336;DHT22;156;48.738;9.228;2023-11-19T12:55:40;15.60;99.90
336;DHT22;156;48.738;9.228;2023-11-19T12:58:08;15.40;99.90
336;DHT22;156;48.738;9.228;2023-11-19T13:00:39;15.30;99.90
336;DHT22;156;48.738;9.228;2023-11-19T13:03:22;15.80;99.90
336;DHT22;156;48.738;9.228;2023-11-19T13:06:03;15.80;99.90
336;DHT22;156;48.738;9.228;2023-11-19T13:08:40;15.80;99.90
336;DHT22;156;48.738;9.228;2023-11-19T13:11:13;14.70;55.00
336;DHT22;156;48.738;9.228;2023-11-19T13:13:56;15.80;1.00
336;DHT22;156;48.738;9.228;2023-11-19T13:16:24;16.00;1.00
336;DHT22;156;48.738;9.228;2023-11-19T13:18:55;16.00;1.00
336;DHT22;156;48.738;9.228;2023-11-19T13:21:22;15.80;1.00
336;DHT22;156;48.738;9.228;2023-11-19T13:23:49;15.50;1.00
336;DHT22;156;48.738;9.228;2023-11-19T13:26:18;15.30;1.00
336;DHT22;156;48.738;9.228;2023-11-19T13:28:45;15.10;1.00
336;DHT22;156;48.738;9.228;2023-11-19T13:31:13;15.30;1.00
336;DHT22;156;48.738;9.228;2023-11-19T13:33:40;15.50;1.00
336;DHT22;156;48.738;9.228;2023-11-19T13:36:17;15.50;1.00
336;DHT22;156;48.738;9.228;2023-11-19T13:38:45;16.10;1.00
336;DHT22;156;48.738;9.228;2023-11-19T13:41:15;16.00;1.00
336;DHT22;156;48.738;9.228;2023-11-19T13:43:49;16.00;1.00
336;DHT22;156;48.738;9.228;2023-11-19T13:46:21;15.40;1.00
336;DHT22;156;48.738;9.228;2023-11-19T13:48:58;15.60;1.00
336;DHT22;156;48.738;9.228;2023-11-19T13:51:34;15.20;1.00
336;DHT22;156;48.738;9.228;2023-11-19T13:54:28;15.10;1.00
336;DHT22;156;48.738;9.228;2023-11-19T13:56:56;15.40;1.00
336;DHT22;156;48.738;9.228;2023-11-19T13:59:32;15.20;11.60
336;DHT22;156;48.738;9.228;2023-11-19T14:02:04;15.70;10.80
336;DHT22;156;48.738;9.228;2023-11-19T14:04:35;15.60;55.60
336;DHT22;156;48.738;9.228;2023-11-19T14:07:12;15.50;9.70
336;DHT22;156;48.738;9.228;2023-11-19T14:09:44;15.30;1.00
336;DHT22;156;48.738;9.228;2023-11-19T14:12:20;14.80;1.00
336;DHT22;156;48.738;9.228;2023-11-19T14:14:53;14.60;1.00
336;DHT22;156;48.738;9.228;2023-11-19T14:17:36;14.60;49.70
336;DHT22;156;48.738;9.228;2023-11-19T14:20:07;14.60;41.70
336;DHT22;156;48.738;9.228;2023-11-19T14:22:49;14.70;53.50
336;DHT22;156;48.738;9.228;2023-11-19T14:25:21;14.70;99.90
336;DHT22;156;48.738;9.228;2023-11-19T14:27:55;14.60;99.90
336;DHT22;156;48.738;9.228;2023-11-19T14:30:24;14.70;99.90
336;DHT22;156;48.738;9.228;2023-11-19T14:32:58;14.60;53.30
336;DHT22;156;48.738;9.228;2023-11-19T14:35:31;15.10;68.30
336;DHT22;156;48.738;9.228;2023-11-19T14:38:04;14.50;91.00
336;DHT22;156;48.738;9.228;2023-11-19T14:40:41;14.40;99.90
336;DHT22;156;48.738;9.228;2023-11-19T14:43:18;14.40;99.90
336;DHT22;156;48.738;9.228;2023-11-19T14:46:03;14.40;99.90
336;DHT22;156;48.738;9.228;2023-11-19T14:48:46;14.40;99.90
336;DHT22;156;48.738;9.228;2023-11-19T14:51:32;14.40;99.90
336;DHT22;156;48.738;9.228;2023-11-19T14:54:11;14.40;99.90
336;DHT22;156;48.738;9.228;2023-11-19T14:56:50;14.50;99.90
336;DHT22;156;48.738;9.228;2023-11-19T14:59:26;14.30;99.90
336;DHT22;156;48.738;9.228;2023-11-19T15:02:03;14.20;99.90
336;DHT22;156;48.738;9.228;2023-11-19T15:07:29;14.00;99.90
336;DHT22;156;48.738;9.228;2023-11-19T15:10:20;13.90;99.90
336;DHT22;156;48.738;9.228;2023-11-19T15:12:56;13.90;99.90
336;DHT22;156;48.738;9.228;2023-11-19T15:15:34;13.80;99.90
336;DHT22;156;48.738;9.228;2023-11-19T15:18:18;13.90;99.90
336;DHT22;156;48.738;9.228;2023-11-19T15:21:10;13.60;99.90
336;DHT22;156;48.738;9.228;2023-11-19T15:23:44;13.60;99.90
336;DHT22;156;48.738;9.228;2023-11-19T15:26:16;13.40;99.90
336;DHT22;156;48.738;9.228;2023-11-19T15:28:47;13.50;99.90
336;DHT22;156;48.738;9.228;2023-11-19T15:31:28;13.50;99.90
336;DHT22;156;48.738;9.228;2023-11-19T15:34:15;13.50;99.90
336;DHT22;156;48.738;9.228;2023-11-19T15:36:54;13.40;99.90
336;DHT22;156;48.738;9.228;2023-11-19T15:39:31;13.70;99.90
336;DHT22;156;48.738;9.228;2023-11-19T15:42:04;13.50;99.90
336;DHT22;156;48.738;9.228;2023-11-19T15:44:38;13.50;99.90
336;DHT22;156;48.738;9.228;2023-11-19T15:47:13;13.10;99.90
336;DHT22;156;48.738;9.228;2023-11-19T15:49:41;13.00;99.90
336;DHT22;156;48.738;9.228;2023-11-19T15:52:13;13.00;1.00
336;DHT22;156;48.738;9.228;2023-11-19T15:54:46;12.80;1.00
336;DHT22;156;48.738;9.228;2023-11-19T15:57:14;13.10;1.00
336;DHT22;156;48.738;9.228;2023-11-19T15:59:44;12.80;1.00
336;DHT22;156;48.738;9.228;2023-11-19T16:02:13;13.10;1.00
336;DHT22;156;48.738;9.228;2023-11-19T16:04:42;13.00;1.00
336;DHT22;156;48.738;9.228;2023-11-19T16:07:13;12.80;1.00
336;DHT22;156;48.738;9.228;2023-11-19T16:09:46;12.70;1.00
336;DHT22;156;48.738;9.228;2023-11-19T16:12:33;12.80;1.00
336;DHT22;156;48.738;9.228;2023-11-19T16:15:04;12.70;1.00
336;DHT22;156;48.738;9.228;2023-11-19T16:17:34;12.90;1.00
336;DHT22;156;48.738;9.228;2023-11-19T16:20:07;12.60;1.00
336;DHT22;156;48.738;9.228;2023-11-19T16:22:36;12.50;1.00
336;DHT22;156;48.738;9.228;2023-11-19T16:25:03;12.40;1.00
336;DHT22;156;48.738;9.228;2023-11-19T16:27:30;12.40;11.50
336;DHT22;156;48.738;9.228;2023-11-19T16:29:59;12.30;99.20
336;DHT22;156;48.738;9.228;2023-11-19T16:32:27;12.30;99.90
336;DHT22;156;48.738;9.228;2023-11-19T16:34:58;12.20;99.90
336;DHT22;156;48.738;9.228;2023-11-19T16:37:26;12.10;99.90
336;DHT22;156;48.738;9.228;2023-11-19T16:40:00;12.10;99.90
336;DHT22;156;48.738;9.228;2023-11-19T16:42:27;12.00;1.00
336;DHT22;156;48.738;9.228;2023-11-19T16:44:57;11.90;1.00
336;DHT22;156;48.738;9.228;2023-11-19T16:47:29;11.90;1.00
336;DHT22;156;48.738;9.228;2023-11-19T16:49:59;11.80;1.00
336;DHT22;156;48.738;9.228;2023-11-19T16:52:26;11.80;1.00
336;DHT22;156;48.738;9.228;2023-11-19T16:54:54;11.70;1.00
336;DHT22;156;48.738;9.228;2023-11-19T16:57:21;11.60;1.00
336;DHT22;156;48.738;9.228;2023-11-19T16:59:49;11.60;1.00
336;DHT22;156;48.738;9.228;2023-11-19T17:02:21;11.70;1.00
336;DHT22;156;48.738;9.228;2023-11-19T17:04:52;11.60;1.00
336;DHT22;156;48.738;9.228;2023-11-19T17:07:19;11.60;1.00
336;DHT22;156;48.738;9.228;2023-11-19T17:09:46;11.60;1.00
336;DHT22;156;48.738;9.228;2023-11-19T17:12:12;11.60;1.00